Weather History for KTPF - June, 2014

Change the Weather History Date:

Tuesday, June 3, 2014

  Actual Average (KTPA) Record (KTPA)
Temperature  
Mean Temperature 80 °F 82 °F  
Max Temperature 87 °F 89 °F 98 °F (1918)
Min Temperature 73 °F 74 °F 61 °F (1965)
Degree Days  
Heating Degree Days 0 0  
Month to date heating degree days 0  
Since 1 June heating degree days 0  
Since 1 July heating degree days 538  
Cooling Degree Days 15 16  
Month to date cooling degree days 48  
Year to date cooling degree days 925  
Since 1 June cooling degree days 48  
Growing Degree Days 30 (Base 50)    
Moisture  
Dew Point 65 °F    
Average Humidity 61    
Maximum Humidity 83    
Minimum Humidity 43    
Precipitation  
Precipitation 0.00 in 0.13 in 2.37 in (1932)
Month to date precipitation 0.40  
Year to date precipitation 12.60  
Sea Level Pressure  
Sea Level Pressure 30.05 in    
Wind  
Wind Speed 7 mph (East)    
Max Wind Speed 13 mph    
Max Gust Speed 21 mph    
Visibility 10 miles    
Events      
T = Trace of Precipitation, MM = Missing Value Source: NWS Daily Summary

Daily Weather History Graph

Daily Weather History Graph

Search for Another Location

Airport or City:

Trip Planner

Search our weather history database for the weather conditions in past years. The results will help you decide how hot, cold, wet, or windy it might be!

Date:

Astronomy

Jun. 03, 2014 Rise Set
Actual Time 6:33 AM EDT 8:22 PM EDT
Civil Twilight 6:07 AM EDT 8:49 PM EDT
Nautical Twilight 5:35 AM EDT 9:20 PM EDT
Astronomical Twilight 5:01 AM EDT 9:54 PM EDT
Moon 11:38 AM EDT (6/3) 12:05 AM EDT (6/3)
Length of Visible Light 14h 41m
Length of Day
13h 49m
Waxing Crescent, 30% of the Moon is Illuminated
Jun 3
Waxing Crescent
Jun 5
First Quarter
Jun 13
Full
Jun 19
Last Quarter
Jun 27
New

Hourly Weather History & Observations

Time (EDT) Temp. Heat Index Dew Point Humidity Pressure Visibility Wind Dir Wind Speed Gust Speed Precip Events Conditions
12:15 AM 77.0 °F - 64.4 °F 65% 30.09 in 10.0 mi East 6.9 mph - N/A   Clear
12:35 AM 77.0 °F - 64.4 °F 65% 30.09 in 10.0 mi East 6.9 mph - N/A   Clear
12:55 AM 77.0 °F - 64.4 °F 65% 30.09 in 10.0 mi East 5.8 mph - N/A   Clear
1:15 AM 77.0 °F - 66.2 °F 69% 30.09 in 10.0 mi East 3.5 mph - N/A   Clear
1:35 AM 75.2 °F - 66.2 °F 73% 30.08 in 10.0 mi East 5.8 mph - N/A   Clear
1:55 AM 75.2 °F - 66.2 °F 73% 30.08 in 10.0 mi ENE 6.9 mph - N/A   Clear
2:15 AM 75.2 °F - 66.2 °F 73% 30.08 in 10.0 mi East 5.8 mph - N/A   Clear
2:35 AM 75.2 °F - 66.2 °F 73% 30.07 in 10.0 mi ENE 6.9 mph - N/A   Clear
2:55 AM 75.2 °F - 64.4 °F 69% 30.06 in 10.0 mi ENE 5.8 mph - N/A   Clear
3:15 AM 75.2 °F - 64.4 °F 69% 30.06 in 10.0 mi ENE 6.9 mph - N/A   Clear
3:35 AM 75.2 °F - 64.4 °F 69% 30.05 in 10.0 mi East 6.9 mph - N/A   Clear
3:55 AM 75.2 °F - 66.2 °F 73% 30.06 in 10.0 mi ENE 6.9 mph - N/A   Clear
4:15 AM 75.2 °F - 66.2 °F 73% 30.05 in 10.0 mi East 4.6 mph - N/A   Clear
4:35 AM 73.4 °F - 66.2 °F 78% 30.04 in 10.0 mi East 5.8 mph - N/A   Clear
4:55 AM 73.4 °F - 66.2 °F 78% 30.04 in 10.0 mi ENE 8.1 mph - N/A   Scattered Clouds
5:15 AM 73.4 °F - 66.2 °F 78% 30.04 in 10.0 mi ENE 6.9 mph - N/A   Clear
5:35 AM 73.4 °F - 66.2 °F 78% 30.05 in 10.0 mi ENE 6.9 mph - N/A   Clear
5:55 AM 73.4 °F - 66.2 °F 78% 30.04 in 10.0 mi ENE 4.6 mph - N/A   Clear
6:15 AM 73.4 °F - 68.0 °F 83% 30.05 in 10.0 mi ENE 4.6 mph - N/A   Clear
6:35 AM 73.4 °F - 68.0 °F 83% 30.05 in 7.0 mi ENE 5.8 mph - N/A   Clear
6:55 AM 73.4 °F - 68.0 °F 83% 30.06 in 10.0 mi ENE 5.8 mph - N/A   Clear
7:15 AM 73.4 °F - 68.0 °F 83% 30.07 in 10.0 mi NE 6.9 mph - N/A   Clear
7:35 AM 73.4 °F - 68.0 °F 83% 30.07 in 10.0 mi NE 5.8 mph - N/A   Clear
7:55 AM 75.2 °F - 68.0 °F 78% 30.08 in 10.0 mi ENE 6.9 mph - N/A   Clear
8:15 AM 75.2 °F - 68.0 °F 78% 30.08 in 4.0 mi ENE 6.9 mph - N/A   Haze
8:35 AM 77.0 °F - 68.0 °F 74% 30.09 in 10.0 mi ENE 6.9 mph - N/A   Overcast
8:55 AM 77.0 °F - 68.0 °F 74% 30.09 in 10.0 mi East 4.6 mph - N/A   Overcast
9:15 AM 78.8 °F - 66.2 °F 65% 30.08 in 10.0 mi East 5.8 mph - N/A   Overcast
9:35 AM 78.8 °F - 66.2 °F 65% 30.09 in 10.0 mi East 9.2 mph - N/A   Overcast
9:55 AM 78.8 °F - 64.4 °F 61% 30.08 in 10.0 mi East 11.5 mph - N/A   Scattered Clouds
10:15 AM 80.6 °F 82.3 °F 64.4 °F 58% 30.09 in 10.0 mi East 6.9 mph - N/A   Mostly Cloudy
10:35 AM 80.6 °F 82.3 °F 64.4 °F 58% 30.09 in 10.0 mi East 8.1 mph - N/A   Overcast
10:55 AM 80.6 °F 82.3 °F 64.4 °F 58% 30.09 in 10.0 mi East 10.4 mph 16.1 mph N/A   Overcast
11:15 AM 82.4 °F 83.9 °F 64.4 °F 54% 30.09 in 10.0 mi ESE 10.4 mph - N/A   Overcast
11:35 AM 82.4 °F 83.4 °F 62.6 °F 51% 30.09 in 10.0 mi East 12.7 mph - N/A   Overcast
11:55 AM 82.4 °F 83.4 °F 62.6 °F 51% 30.09 in 10.0 mi East 10.4 mph - N/A   Overcast
12:15 PM 84.2 °F 85.6 °F 64.4 °F 51% 30.08 in 10.0 mi ESE 9.2 mph 20.7 mph N/A   Overcast
12:35 PM 86.0 °F 87.3 °F 64.4 °F 48% 30.07 in 10.0 mi ESE 12.7 mph - N/A   Mostly Cloudy
12:55 PM 86.0 °F 87.3 °F 64.4 °F 48% 30.06 in 10.0 mi East 9.2 mph - N/A   Scattered Clouds
1:15 PM 86.0 °F 87.3 °F 64.4 °F 48% 30.06 in 10.0 mi East 8.1 mph - N/A   Mostly Cloudy
1:35 PM 87.8 °F 89.4 °F 64.4 °F 46% 30.05 in 10.0 mi ESE 8.1 mph - N/A   Mostly Cloudy
1:55 PM 87.8 °F 89.4 °F 64.4 °F 46% 30.04 in 10.0 mi East 10.4 mph - N/A   Mostly Cloudy
2:15 PM 86.0 °F 86.6 °F 62.6 °F 45% 30.04 in 10.0 mi East 8.1 mph - N/A   Mostly Cloudy
2:35 PM 86.0 °F 86.6 °F 62.6 °F 45% 30.03 in 10.0 mi ESE 5.8 mph - N/A   Mostly Cloudy
2:55 PM 87.8 °F 88.5 °F 62.6 °F 43% 30.03 in 10.0 mi East 5.8 mph - N/A   Scattered Clouds
3:15 PM 87.8 °F 88.5 °F 62.6 °F 43% 30.02 in 10.0 mi East 6.9 mph - N/A   Scattered Clouds
3:55 PM 87.8 °F 88.5 °F 62.6 °F 43% 30.01 in 10.0 mi East 4.6 mph - N/A   Scattered Clouds
4:15 PM 87.8 °F 88.5 °F 62.6 °F 43% 30.00 in 10.0 mi East 5.8 mph - N/A   Mostly Cloudy
4:35 PM 86.0 °F 86.6 °F 62.6 °F 45% 30.00 in 10.0 mi ESE 3.5 mph - N/A   Overcast
4:55 PM 86.0 °F 86.6 °F 62.6 °F 45% 30.00 in 10.0 mi East 6.9 mph - N/A   Overcast
5:15 PM 86.0 °F 86.6 °F 62.6 °F 45% 30.00 in 10.0 mi East 6.9 mph - N/A   Overcast
5:35 PM 86.0 °F 87.3 °F 64.4 °F 48% 29.99 in 10.0 mi ENE 9.2 mph - N/A   Overcast
5:55 PM 84.2 °F 85.6 °F 64.4 °F 51% 29.99 in 10.0 mi North - - N/A   Overcast
6:15 PM 84.2 °F 86.6 °F 66.2 °F 55% 30.00 in 10.0 mi East 5.8 mph - N/A   Overcast
6:35 PM 84.2 °F 85.6 °F 64.4 °F 51% 29.99 in 10.0 mi ESE 8.1 mph - N/A   Overcast
6:55 PM 82.4 °F 83.9 °F 64.4 °F 54% 29.99 in 10.0 mi East 5.8 mph - N/A   Overcast
7:15 PM 82.4 °F 83.9 °F 64.4 °F 54% 30.00 in 10.0 mi East 8.1 mph - N/A   Scattered Clouds
7:35 PM 82.4 °F 83.9 °F 64.4 °F 54% 29.99 in 10.0 mi East 6.9 mph - N/A   Scattered Clouds
7:55 PM 82.4 °F 83.9 °F 64.4 °F 54% 30.00 in 10.0 mi East 5.8 mph - N/A   Scattered Clouds
8:15 PM 82.4 °F 83.9 °F 64.4 °F 54% 30.00 in 10.0 mi East 4.6 mph - N/A   Scattered Clouds
8:35 PM 80.6 °F 82.3 °F 64.4 °F 58% 30.00 in 10.0 mi East 9.2 mph - N/A   Clear
8:55 PM 80.6 °F 82.3 °F 64.4 °F 58% 30.00 in 10.0 mi East 6.9 mph - N/A   Clear
9:15 PM 80.6 °F 82.3 °F 64.4 °F 58% 30.01 in 10.0 mi East 5.8 mph - N/A   Clear
9:35 PM 80.6 °F 82.3 °F 64.4 °F 58% 30.01 in 10.0 mi East 4.6 mph - N/A   Scattered Clouds
9:55 PM 80.6 °F 82.3 °F 64.4 °F 58% 30.01 in 10.0 mi East 6.9 mph - N/A   Overcast
10:15 PM 80.6 °F 82.3 °F 64.4 °F 58% 30.02 in 10.0 mi East 8.1 mph - N/A   Overcast
10:35 PM 80.6 °F 82.3 °F 64.4 °F 58% 30.02 in 10.0 mi East 8.1 mph - N/A   Overcast
11:15 PM 78.8 °F - 64.4 °F 61% 30.02 in 10.0 mi East 6.9 mph - N/A   Overcast
11:35 PM 78.8 °F - 64.4 °F 61% 30.02 in 10.0 mi ESE 11.5 mph - N/A   Scattered Clouds
11:55 PM 78.8 °F - 64.4 °F 61% 30.02 in 10.0 mi ESE 9.2 mph - N/A   Clear